createdAt,value
2023-05-17T00:00:17.058Z,53.52
2023-05-17T00:03:02.331Z,53.62
2023-05-17T00:05:47.557Z,53.81
2023-05-17T00:08:32.846Z,53.36
2023-05-17T00:11:18.308Z,53.66
2023-05-17T00:14:03.807Z,53.73
2023-05-17T00:16:49.078Z,53.61
2023-05-17T00:19:34.675Z,53.48
2023-05-17T00:22:19.937Z,53.61
2023-05-17T00:25:05.601Z,53.89
2023-05-17T00:27:51.173Z,53.59
2023-05-17T00:30:36.466Z,53.68
2023-05-17T00:33:22.157Z,53.55
2023-05-17T00:36:07.494Z,53.52
2023-05-17T00:38:53.237Z,53.57
2023-05-17T00:41:38.699Z,53.67
2023-05-17T00:44:23.935Z,53.70
2023-05-17T00:47:09.322Z,53.57
2023-05-17T00:49:54.493Z,53.71
2023-05-17T00:52:40.223Z,53.79
2023-05-17T00:55:25.441Z,53.58
2023-05-17T00:58:15.037Z,53.66
2023-05-17T01:01:01.859Z,53.40
2023-05-17T01:03:47.599Z,53.69
2023-05-17T01:06:33.601Z,53.68
2023-05-17T01:09:19.125Z,53.82
2023-05-17T01:12:07.386Z,53.58
2023-05-17T01:15:33.069Z,53.75
2023-05-17T01:18:27.670Z,53.49
2023-05-17T01:21:57.375Z,53.63
2023-05-17T01:24:59.597Z,53.61
2023-05-17T01:27:50.179Z,53.70
2023-05-17T01:30:38.155Z,53.78
2023-05-17T01:33:23.584Z,53.63
2023-05-17T01:36:09.715Z,53.65
2023-05-17T01:38:55.143Z,53.71
2023-05-17T01:41:42.259Z,53.75
2023-05-17T01:44:59.564Z,53.77
2023-05-17T01:47:56.829Z,53.63
2023-05-17T01:50:43.869Z,53.80
2023-05-17T01:53:40.294Z,53.56
2023-05-17T01:56:34.677Z,53.80
2023-05-17T01:59:25.181Z,53.79
2023-05-17T02:02:10.775Z,53.81
2023-05-17T02:04:56.168Z,53.58
2023-05-17T02:07:41.379Z,53.57
2023-05-17T02:10:26.826Z,53.84
2023-05-17T02:13:12.801Z,53.65
2023-05-17T02:16:02.458Z,53.75
2023-05-17T02:18:47.914Z,53.73
2023-05-17T02:21:33.264Z,53.82
2023-05-17T02:24:18.467Z,53.59
2023-05-17T02:27:03.893Z,53.52
2023-05-17T02:29:50.437Z,53.66
2023-05-17T02:32:35.820Z,53.65
2023-05-17T02:35:20.917Z,53.80
2023-05-17T02:38:09.280Z,53.92
2023-05-17T02:40:54.643Z,53.81
2023-05-17T02:43:39.811Z,53.73
2023-05-17T02:46:25.103Z,53.82
2023-05-17T02:49:10.621Z,53.78
2023-05-17T02:51:56.256Z,53.67
2023-05-17T02:54:43.470Z,53.81
2023-05-17T02:57:29.159Z,53.53
2023-05-17T03:00:15.030Z,53.71
2023-05-17T03:03:00.263Z,53.64
2023-05-17T03:05:45.964Z,53.62
2023-05-17T03:08:31.700Z,53.54
2023-05-17T03:11:18.467Z,53.51
2023-05-17T03:14:03.812Z,53.57
2023-05-17T03:16:50.122Z,53.64
2023-05-17T03:19:36.430Z,53.52
2023-05-17T03:22:22.391Z,53.60
2023-05-17T03:25:08.614Z,53.45
2023-05-17T03:27:55.524Z,53.51
2023-05-17T03:30:41.094Z,53.70
2023-05-17T03:33:27.592Z,53.27
2023-05-17T03:36:13.320Z,53.55
2023-05-17T03:38:59.111Z,53.43
2023-05-17T03:41:44.819Z,53.37
2023-05-17T03:44:31.167Z,53.45
2023-05-17T03:47:16.431Z,53.55
2023-05-17T03:50:02.737Z,53.76
2023-05-17T03:52:51.053Z,54.21
2023-05-17T03:55:37.376Z,54.28
2023-05-17T03:58:23.560Z,54.83
2023-05-17T04:01:08.803Z,55.21
2023-05-17T04:03:54.239Z,55.15
2023-05-17T04:06:41.365Z,55.01
2023-05-17T04:09:26.886Z,55.20
2023-05-17T04:12:12.157Z,55.23
2023-05-17T04:14:57.882Z,56.79
2023-05-17T04:17:44.380Z,55.14
2023-05-17T04:20:29.955Z,54.90
2023-05-17T04:23:16.095Z,55.08
2023-05-17T04:26:01.639Z,55.06
2023-05-17T04:28:49.187Z,55.07
2023-05-17T04:31:35.752Z,56.22
2023-05-17T04:34:25.022Z,54.69
2023-05-17T04:37:12.505Z,55.14
2023-05-17T04:39:59.292Z,55.82
2023-05-17T04:42:47.733Z,54.73
2023-05-17T04:45:33.996Z,54.94
2023-05-17T04:48:20.971Z,54.60
2023-05-17T04:51:06.369Z,54.23
2023-05-17T04:53:51.605Z,53.82
2023-05-17T04:56:37.663Z,54.03
2023-05-17T04:59:27.653Z,54.25
2023-05-17T05:02:13.154Z,54.13
2023-05-17T05:04:58.915Z,54.48
2023-05-17T05:07:44.286Z,54.36
2023-05-17T05:10:32.033Z,53.99
2023-05-17T05:13:18.188Z,53.05
2023-05-17T05:16:03.913Z,53.53
2023-05-17T05:18:49.597Z,53.35
2023-05-17T05:21:35.010Z,53.48
2023-05-17T05:24:20.161Z,53.57
2023-05-17T05:27:07.202Z,53.42
2023-05-17T05:29:54.693Z,53.28
2023-05-17T05:32:40.407Z,53.39
2023-05-17T05:35:30.381Z,53.63
2023-05-17T05:38:16.832Z,53.48
2023-05-17T05:41:02.724Z,53.58
2023-05-17T05:43:48.430Z,53.60
2023-05-17T05:46:33.778Z,53.49
2023-05-17T05:49:22.347Z,53.54
2023-05-17T05:52:08.274Z,53.46
2023-05-17T05:54:55.289Z,53.40
2023-05-17T05:57:40.559Z,53.39
2023-05-17T06:00:26.203Z,53.41
2023-05-17T06:03:11.858Z,53.44
2023-05-17T06:05:57.255Z,53.35
2023-05-17T06:08:45.138Z,53.45
2023-05-17T06:11:30.381Z,53.29
2023-05-17T06:14:15.967Z,53.42
2023-05-17T06:17:01.480Z,53.38
2023-05-17T06:19:49.156Z,53.40
2023-05-17T06:22:34.628Z,53.35
2023-05-17T06:25:19.947Z,53.44
2023-05-17T06:28:05.569Z,53.35
2023-05-17T06:30:51.073Z,53.32
2023-05-17T06:33:36.241Z,53.26
2023-05-17T06:36:21.699Z,53.22
2023-05-17T06:39:07.169Z,53.10
2023-05-17T06:41:52.732Z,53.47
2023-05-17T06:44:37.923Z,53.41
2023-05-17T06:47:23.133Z,53.38
2023-05-17T06:50:09.001Z,53.26
2023-05-17T06:52:54.342Z,53.28
2023-05-17T06:55:40.432Z,53.16
2023-05-17T06:58:25.559Z,53.12
2023-05-17T07:01:10.872Z,53.23
2023-05-17T07:03:56.883Z,53.38
2023-05-17T07:06:42.303Z,53.32
2023-05-17T07:09:27.677Z,53.56
2023-05-17T07:12:13.264Z,53.21
2023-05-17T07:14:58.611Z,53.43
2023-05-17T07:17:43.850Z,53.25
2023-05-17T07:20:29.099Z,53.29
2023-05-17T07:23:14.691Z,53.33
2023-05-17T07:25:59.878Z,53.44
2023-05-17T07:28:45.164Z,53.18
2023-05-17T07:31:30.659Z,53.39
2023-05-17T07:34:16.122Z,53.45
2023-05-17T07:37:01.368Z,53.20
2023-05-17T07:39:46.565Z,53.32
2023-05-17T07:42:33.320Z,53.13
2023-05-17T07:45:19.029Z,53.19
2023-05-17T07:48:04.604Z,53.02
2023-05-17T07:50:50.619Z,53.25
2023-05-17T07:53:36.677Z,53.19
2023-05-17T07:56:22.601Z,53.29
2023-05-17T07:59:08.775Z,53.00
2023-05-17T08:01:54.936Z,52.95
2023-05-17T08:04:42.155Z,53.04
2023-05-17T08:07:28.087Z,52.93
2023-05-17T08:10:13.916Z,53.06
2023-05-17T08:13:00.165Z,53.12
2023-05-17T08:15:46.220Z,53.20
2023-05-17T08:18:33.541Z,53.10
2023-05-17T08:21:19.610Z,53.02
2023-05-17T08:24:06.821Z,52.94
2023-05-17T08:26:53.839Z,52.77
2023-05-17T08:29:40.216Z,52.95
2023-05-17T08:32:26.709Z,53.20
2023-05-17T08:35:12.794Z,53.05
2023-05-17T08:37:59.343Z,53.04
2023-05-17T08:40:54.759Z,52.92
2023-05-17T08:43:41.912Z,53.19
2023-05-17T08:46:31.896Z,53.08
2023-05-17T08:49:23.344Z,53.12
2023-05-17T08:52:11.515Z,53.06
2023-05-17T08:54:58.563Z,52.85
2023-05-17T08:57:46.174Z,52.89
2023-05-17T09:00:33.813Z,52.94
2023-05-17T09:03:22.567Z,53.00
2023-05-17T09:06:11.527Z,52.88
2023-05-17T09:08:59.070Z,52.90
2023-05-17T09:11:46.687Z,53.06
2023-05-17T09:14:37.539Z,52.85
2023-05-17T09:17:24.189Z,52.90
2023-05-17T09:20:11.879Z,52.92
2023-05-17T09:22:58.297Z,52.92
2023-05-17T09:25:49.200Z,53.05
2023-05-17T09:28:41.025Z,52.81
2023-05-17T09:31:27.577Z,52.89
2023-05-17T09:34:20.770Z,53.00
2023-05-17T09:37:12.538Z,52.75
2023-05-17T09:39:58.509Z,53.10
2023-05-17T09:42:48.159Z,53.03
2023-05-17T09:45:34.364Z,53.09
2023-05-17T09:48:22.390Z,52.78
2023-05-17T09:51:07.867Z,52.91
2023-05-17T09:53:54.817Z,52.79
2023-05-17T09:56:41.180Z,52.81
2023-05-17T09:59:29.443Z,52.99
2023-05-17T10:02:24.482Z,52.85
2023-05-17T10:05:12.546Z,53.06
2023-05-17T10:07:58.618Z,52.93
2023-05-17T10:10:46.456Z,52.92
2023-05-17T10:13:37.488Z,52.88
2023-05-17T10:16:23.930Z,52.62
2023-05-17T10:19:10.620Z,52.91
2023-05-17T10:22:07.836Z,52.72
2023-05-17T10:25:04.520Z,52.70
2023-05-17T10:27:53.435Z,52.84
2023-05-17T10:30:40.650Z,52.72
2023-05-17T10:33:28.135Z,52.87
2023-05-17T10:36:17.715Z,52.93
2023-05-17T10:39:08.157Z,52.76
2023-05-17T10:42:13.004Z,52.73
2023-05-17T10:45:01.589Z,52.72
2023-05-17T10:47:46.923Z,52.73
2023-05-17T10:50:32.716Z,52.67
2023-05-17T10:53:18.051Z,52.55
2023-05-17T10:56:04.098Z,52.84
2023-05-17T10:59:17.058Z,52.66
2023-05-17T11:02:10.427Z,52.75
2023-05-17T11:05:00.511Z,52.71
2023-05-17T11:07:48.717Z,52.70
2023-05-17T11:10:36.112Z,52.76
2023-05-17T11:13:27.648Z,52.59
2023-05-17T11:16:17.978Z,52.56
2023-05-17T11:19:12.190Z,52.63
2023-05-17T11:21:58.036Z,52.67
2023-05-17T11:24:45.696Z,52.79
2023-05-17T11:27:36.959Z,52.54
2023-05-17T11:30:26.885Z,52.66
2023-05-17T11:33:21.321Z,52.68
2023-05-17T11:36:22.889Z,52.52
2023-05-17T11:39:13.794Z,52.44
2023-05-17T11:41:59.481Z,52.71
2023-05-17T11:44:44.947Z,52.51
2023-05-17T11:47:30.468Z,52.62
2023-05-17T11:50:17.671Z,52.65
2023-05-17T11:53:06.800Z,52.60
2023-05-17T11:55:53.061Z,52.60
2023-05-17T11:58:38.882Z,52.46
2023-05-17T12:01:24.795Z,52.58
2023-05-17T12:04:10.285Z,52.51
2023-05-17T12:06:56.322Z,52.59
2023-05-17T12:09:46.182Z,52.62
2023-05-17T12:12:31.443Z,52.53
2023-05-17T12:15:20.483Z,52.72
2023-05-17T12:18:06.164Z,52.52
2023-05-17T12:20:55.462Z,52.50
2023-05-17T12:23:50.896Z,52.47
2023-05-17T12:26:44.561Z,52.42
2023-05-17T12:29:30.309Z,52.42
2023-05-17T12:32:16.328Z,52.36
2023-05-17T12:35:02.325Z,52.64
2023-05-17T12:37:47.891Z,52.86
2023-05-17T12:40:33.139Z,52.47
2023-05-17T12:43:19.820Z,52.56
2023-05-17T12:46:12.447Z,52.59
2023-05-17T12:49:07.216Z,52.29
2023-05-17T12:51:52.932Z,52.40
2023-05-17T12:54:39.838Z,52.49
2023-05-17T12:57:25.064Z,52.57
2023-05-17T13:00:11.167Z,52.62
2023-05-17T13:02:57.135Z,51.48
2023-05-17T13:05:44.185Z,51.82
2023-05-17T13:08:29.891Z,51.96
2023-05-17T13:11:15.451Z,51.84
2023-05-17T13:14:00.698Z,51.76
2023-05-17T13:16:45.926Z,51.75
2023-05-17T13:19:31.250Z,51.66
2023-05-17T13:22:18.102Z,51.63
2023-05-17T13:25:03.626Z,51.89
2023-05-17T13:27:49.567Z,51.70
2023-05-17T13:30:35.018Z,52.13
2023-05-17T13:33:20.346Z,51.76
2023-05-17T13:36:06.615Z,51.52
2023-05-17T13:38:51.808Z,51.51
2023-05-17T13:41:37.151Z,51.31
2023-05-17T13:44:22.529Z,51.51
2023-05-17T13:47:08.236Z,51.37
2023-05-17T13:49:53.820Z,51.28
2023-05-17T13:52:39.457Z,51.35
2023-05-17T13:55:25.170Z,51.28
2023-05-17T13:58:10.336Z,51.59
2023-05-17T14:00:56.330Z,51.87
2023-05-17T14:03:41.657Z,49.77
2023-05-17T14:06:26.764Z,50.49
2023-05-17T14:09:12.955Z,49.45
2023-05-17T14:12:00.962Z,50.22
2023-05-17T14:14:46.489Z,50.27
2023-05-17T14:17:33.207Z,50.48
2023-05-17T14:20:18.759Z,50.44
2023-05-17T14:23:04.103Z,50.91
2023-05-17T14:25:49.524Z,50.84
2023-05-17T14:28:38.189Z,50.84
2023-05-17T14:31:23.971Z,51.16
2023-05-17T14:34:09.581Z,51.07
2023-05-17T14:36:55.550Z,50.89
2023-05-17T14:39:41.286Z,50.85
2023-05-17T14:42:28.002Z,50.90
2023-05-17T14:45:13.840Z,51.23
2023-05-17T14:47:59.564Z,51.08
2023-05-17T14:50:44.951Z,50.95
2023-05-17T14:53:30.970Z,51.03
2023-05-17T14:56:16.919Z,50.97
2023-05-17T14:59:03.338Z,51.10
2023-05-17T15:01:48.991Z,51.08
2023-05-17T15:04:34.855Z,50.98
2023-05-17T15:07:20.862Z,51.06
2023-05-17T15:10:06.674Z,51.24
2023-05-17T15:12:52.432Z,51.19
2023-05-17T15:15:38.448Z,51.10
2023-05-17T15:18:24.830Z,51.09
2023-05-17T15:21:10.567Z,51.26
2023-05-17T15:23:56.073Z,51.05
2023-05-17T15:26:41.926Z,51.22
2023-05-17T15:29:28.753Z,50.42
2023-05-17T15:32:14.343Z,50.52
2023-05-17T15:35:00.243Z,50.83
2023-05-17T15:37:46.242Z,50.94
2023-05-17T15:40:31.738Z,51.04
2023-05-17T15:43:17.245Z,51.38
2023-05-17T15:46:02.795Z,51.52
2023-05-17T15:48:48.525Z,51.39
2023-05-17T15:51:33.867Z,51.18
2023-05-17T15:54:19.404Z,51.11
2023-05-17T15:57:05.054Z,51.07
2023-05-17T15:59:51.185Z,50.85
2023-05-17T16:02:36.700Z,50.88
2023-05-17T16:05:22.531Z,50.91
2023-05-17T16:08:09.264Z,50.72
2023-05-17T16:10:54.808Z,50.69
2023-05-17T16:13:40.945Z,50.80
2023-05-17T16:16:26.528Z,50.74
2023-05-17T16:19:13.008Z,50.83
2023-05-17T16:22:06.751Z,50.86
2023-05-17T16:24:59.461Z,51.29
2023-05-17T16:27:46.687Z,51.46
2023-05-17T16:30:32.689Z,51.73
2023-05-17T16:33:22.818Z,51.86
2023-05-17T16:36:11.755Z,51.93
2023-05-17T16:39:18.822Z,51.99
2023-05-17T16:45:17.689Z,52.13
2023-05-17T16:48:06.882Z,52.22
2023-05-17T16:50:55.662Z,52.31
2023-05-17T16:53:48.864Z,52.48
2023-05-17T16:56:37.673Z,52.50
2023-05-17T16:59:23.201Z,51.80
2023-05-17T17:02:09.593Z,51.97
2023-05-17T17:04:55.812Z,52.25
2023-05-17T17:07:41.319Z,52.57
2023-05-17T17:10:26.886Z,52.67
2023-05-17T17:13:12.477Z,52.06
2023-05-17T17:15:58.018Z,52.18
2023-05-17T17:18:44.445Z,51.88
2023-05-17T17:21:36.534Z,51.98
2023-05-17T17:24:22.629Z,51.84
2023-05-17T17:27:09.378Z,51.78
2023-05-17T17:29:55.933Z,51.63
2023-05-17T17:32:42.910Z,51.60
2023-05-17T17:35:28.471Z,51.56
2023-05-17T17:38:14.477Z,51.57
2023-05-17T17:41:00.212Z,51.49
2023-05-17T17:43:48.008Z,51.44
2023-05-17T17:46:34.887Z,51.31
2023-05-17T17:49:20.164Z,51.51
2023-05-17T17:52:05.843Z,51.69
2023-05-17T17:54:51.336Z,51.65
2023-05-17T17:57:37.051Z,51.41
2023-05-17T18:00:23.870Z,51.47
2023-05-17T18:03:14.404Z,51.62
2023-05-17T18:06:00.954Z,51.42
2023-05-17T18:08:46.807Z,51.41
2023-05-17T18:11:36.353Z,51.28
2023-05-17T18:14:21.942Z,51.46
2023-05-17T18:17:12.118Z,51.29
2023-05-17T18:19:57.661Z,51.53
2023-05-17T18:22:43.455Z,51.37
2023-05-17T18:25:55.886Z,51.54
2023-05-17T18:28:43.221Z,51.53
2023-05-17T18:31:31.687Z,51.42
2023-05-17T18:34:18.837Z,51.43
2023-05-17T18:37:05.020Z,51.51
2023-05-17T18:39:51.496Z,51.39
2023-05-17T18:42:36.935Z,51.53
2023-05-17T18:48:08.237Z,51.72
2023-05-17T18:50:53.549Z,51.53
2023-05-17T18:53:38.801Z,51.92
2023-05-17T18:56:25.194Z,51.88
2023-05-17T18:59:10.622Z,51.96
2023-05-17T19:01:55.995Z,52.06
2023-05-17T19:04:41.312Z,52.03
2023-05-17T19:07:26.348Z,51.96
2023-05-17T19:14:16.423Z,52.09
2023-05-17T19:17:01.789Z,51.92
2023-05-17T19:19:47.222Z,52.08
2023-05-17T19:22:32.817Z,52.08
2023-05-17T19:25:20.294Z,52.17
2023-05-17T19:28:06.344Z,52.05
2023-05-17T19:30:51.637Z,52.16
2023-05-17T19:33:37.781Z,52.20
2023-05-17T19:36:22.910Z,52.08
2023-05-17T19:39:08.161Z,51.98
2023-05-17T19:41:53.420Z,52.08
2023-05-17T19:44:38.772Z,52.03
2023-05-17T19:47:24.214Z,52.22
2023-05-17T19:50:11.569Z,52.06
2023-05-17T19:52:56.973Z,52.06
2023-05-17T19:55:42.262Z,52.04
2023-05-17T19:58:29.304Z,52.04
2023-05-17T20:01:14.924Z,52.21
2023-05-17T20:04:00.225Z,52.05
2023-05-17T20:06:46.246Z,51.86
2023-05-17T20:09:32.238Z,51.88
2023-05-17T20:12:17.658Z,51.82
2023-05-17T20:15:03.447Z,51.67
2023-05-17T20:17:48.910Z,51.41
2023-05-17T20:20:34.129Z,51.21
2023-05-17T20:23:19.428Z,51.24
2023-05-17T20:26:04.948Z,51.18
2023-05-17T20:28:50.316Z,51.04
2023-05-17T20:31:36.390Z,51.01
2023-05-17T20:34:22.065Z,50.86
2023-05-17T20:37:07.574Z,50.52
2023-05-17T20:39:53.353Z,50.63
2023-05-17T20:42:40.330Z,50.38
2023-05-17T20:45:30.020Z,50.54
2023-05-17T20:48:15.488Z,50.47
2023-05-17T20:51:01.224Z,50.21
2023-05-17T20:53:46.754Z,50.01
2023-05-17T20:56:37.024Z,49.99
2023-05-17T20:59:23.648Z,49.73
2023-05-17T21:02:09.175Z,49.77
2023-05-17T21:04:54.759Z,49.77
2023-05-17T21:07:40.414Z,49.67
2023-05-17T21:10:26.039Z,49.52
2023-05-17T21:13:12.480Z,49.46
2023-05-17T21:15:57.850Z,49.47
2023-05-17T21:18:45.110Z,49.25
2023-05-17T21:21:30.856Z,49.21
2023-05-17T21:24:16.466Z,49.15
2023-05-17T21:27:02.115Z,49.39
2023-05-17T21:29:47.779Z,49.31
2023-05-17T21:32:33.161Z,49.15
2023-05-17T21:35:18.438Z,49.07
2023-05-17T21:38:03.976Z,48.91
2023-05-17T21:40:49.685Z,48.98
2023-05-17T21:43:35.002Z,48.88
2023-05-17T21:46:20.298Z,48.83
2023-05-17T21:49:05.849Z,48.70
2023-05-17T21:51:51.654Z,48.71
2023-05-17T21:54:36.880Z,48.59
2023-05-17T21:57:22.138Z,48.73
2023-05-17T22:00:08.085Z,48.63
2023-05-17T22:02:53.468Z,48.60
2023-05-17T22:05:39.112Z,48.38
2023-05-17T22:08:24.450Z,48.45
2023-05-17T22:11:11.015Z,48.22
2023-05-17T22:13:57.084Z,48.35
2023-05-17T22:16:42.428Z,48.27
2023-05-17T22:19:30.355Z,48.22
2023-05-17T22:22:16.018Z,48.04
2023-05-17T22:25:01.594Z,47.91
2023-05-17T22:27:47.902Z,48.07
2023-05-17T22:30:33.614Z,48.06
2023-05-17T22:33:19.393Z,47.88
2023-05-17T22:36:05.127Z,47.86
2023-05-17T22:38:50.729Z,47.74
2023-05-17T22:41:36.589Z,47.71
2023-05-17T22:44:22.133Z,47.67
2023-05-17T22:47:08.823Z,47.82
2023-05-17T22:49:54.047Z,47.79
2023-05-17T22:52:42.736Z,47.54
2023-05-17T22:55:28.962Z,47.55
2023-05-17T22:58:15.486Z,47.49
2023-05-17T23:01:01.134Z,47.39
2023-05-17T23:03:46.493Z,47.50
2023-05-17T23:06:34.297Z,47.43
2023-05-17T23:09:22.004Z,47.57
2023-05-17T23:12:08.805Z,47.50
2023-05-17T23:14:57.953Z,47.24
2023-05-17T23:17:44.064Z,47.07
2023-05-17T23:20:29.942Z,47.40
2023-05-17T23:23:15.893Z,47.43
2023-05-17T23:26:01.936Z,47.41
2023-05-17T23:28:47.247Z,47.20
2023-05-17T23:31:33.903Z,47.25
2023-05-17T23:34:19.312Z,47.31
2023-05-17T23:37:04.927Z,47.34
2023-05-17T23:39:50.560Z,47.58
2023-05-17T23:42:36.378Z,47.41
2023-05-17T23:45:21.946Z,47.60
2023-05-17T23:48:09.826Z,47.61
2023-05-17T23:50:55.554Z,47.66
2023-05-17T23:53:42.173Z,47.75
2023-05-17T23:56:27.494Z,47.46
2023-05-17T23:59:12.957Z,47.81
